createdAt,value
2023-05-16T00:00:48.589Z,1.40
2023-05-16T00:03:17.512Z,1.10
2023-05-16T00:21:47.028Z,1.60
2023-05-16T00:58:42.916Z,1.30
2023-05-16T01:04:13.863Z,1.63
2023-05-16T01:13:08.528Z,1.77
2023-05-16T01:15:45.861Z,1.50
2023-05-16T01:18:24.054Z,1.87
2023-05-16T01:20:59.865Z,1.70
2023-05-16T01:23:49.197Z,1.53
2023-05-16T01:26:22.782Z,1.07
2023-05-16T01:28:52.987Z,1.30
2023-05-16T01:31:21.830Z,1.83
2023-05-16T01:33:59.679Z,1.70
2023-05-16T01:36:34.616Z,2.07
2023-05-16T01:39:13.252Z,1.77
2023-05-16T01:41:49.518Z,1.87
2023-05-16T01:44:23.124Z,1.50
2023-05-16T01:46:58.157Z,1.27
2023-05-16T01:49:30.710Z,2.13
2023-05-16T01:52:02.621Z,1.77
2023-05-16T01:54:34.746Z,2.53
2023-05-16T01:57:15.004Z,1.50
2023-05-16T01:59:52.506Z,1.40
2023-05-16T02:02:20.800Z,1.50
2023-05-16T02:04:49.348Z,1.50
2023-05-16T02:07:27.236Z,1.30
2023-05-16T02:12:49.775Z,1.60
2023-05-16T02:15:23.028Z,1.20
2023-05-16T02:17:59.506Z,2.10
2023-05-16T02:20:27.797Z,1.80
2023-05-16T02:22:58.768Z,1.50
2023-05-16T02:25:27.208Z,2.13
2023-05-16T02:27:58.195Z,1.93
2023-05-16T02:33:28.447Z,1.50
2023-05-16T02:35:57.317Z,1.80
2023-05-16T02:38:29.749Z,3.00
2023-05-16T02:50:45.874Z,1.70
2023-05-16T06:43:29.264Z,2.70
2023-05-16T06:46:06.047Z,2.10
2023-05-16T06:51:32.802Z,1.90
2023-05-16T07:47:55.299Z,2.10
2023-05-16T07:50:24.213Z,1.83
2023-05-16T07:55:50.691Z,1.80
2023-05-16T08:01:09.403Z,2.00
2023-05-16T08:36:20.046Z,1.70
2023-05-16T08:38:53.989Z,2.03
2023-05-16T08:47:15.541Z,1.40
2023-05-16T08:49:46.544Z,1.70
2023-05-16T08:55:49.092Z,1.60
2023-05-16T09:22:04.791Z,0.87
2023-05-16T09:27:22.355Z,1.07
2023-05-16T09:30:07.137Z,1.00
2023-05-16T09:35:19.491Z,1.00
2023-05-16T09:38:13.411Z,1.20
2023-05-16T09:40:45.467Z,1.03
2023-05-16T09:46:01.375Z,0.90
2023-05-16T09:51:44.272Z,1.10
2023-05-16T09:54:12.694Z,1.00
2023-05-16T09:59:46.439Z,0.80
2023-05-16T10:02:20.264Z,1.20
2023-05-16T10:04:49.071Z,1.10
2023-05-16T10:07:19.958Z,1.40
2023-05-16T10:09:49.409Z,1.33
2023-05-16T10:12:18.636Z,1.27
2023-05-16T10:14:51.044Z,1.07
2023-05-16T10:17:21.950Z,0.70
2023-05-16T10:19:53.181Z,1.20
2023-05-16T10:22:40.615Z,1.20
2023-05-16T10:25:33.651Z,1.00
2023-05-16T10:28:03.536Z,1.30
2023-05-16T10:30:33.481Z,1.27
2023-05-16T10:33:04.694Z,1.20
2023-05-16T10:38:24.876Z,1.00
2023-05-16T10:41:01.272Z,1.20
2023-05-16T10:43:33.919Z,1.00
2023-05-16T10:46:26.622Z,1.20
2023-05-16T10:49:06.310Z,0.80
2023-05-16T10:51:40.238Z,1.00
2023-05-16T10:54:36.153Z,0.90
2023-05-16T11:00:24.900Z,1.20
2023-05-16T11:02:54.215Z,1.00
2023-05-16T11:05:38.500Z,1.20
2023-05-16T11:08:11.596Z,1.13
2023-05-16T11:10:42.394Z,0.80
2023-05-16T11:13:28.465Z,0.97
2023-05-16T11:18:52.552Z,0.70
2023-05-16T11:21:39.139Z,1.20
2023-05-16T11:27:56.694Z,0.90
2023-05-16T11:30:45.559Z,1.10
2023-05-16T11:33:15.448Z,1.07
2023-05-16T11:35:49.530Z,1.10
2023-05-16T11:38:18.371Z,1.13
2023-05-16T11:41:03.294Z,1.30
2023-05-16T11:43:47.960Z,0.80
2023-05-16T11:46:38.494Z,0.80
2023-05-16T11:49:10.220Z,1.03
2023-05-16T11:54:35.550Z,1.30
2023-05-16T11:57:05.196Z,1.17
2023-05-16T11:59:33.528Z,1.50
2023-05-16T12:02:07.279Z,1.33
2023-05-16T12:04:36.471Z,1.30
2023-05-16T12:07:05.873Z,1.50
2023-05-16T12:09:36.422Z,1.00
2023-05-16T12:12:15.770Z,1.67
2023-05-16T12:14:47.122Z,0.97
2023-05-16T12:17:17.689Z,1.53
2023-05-16T12:19:48.725Z,1.53
2023-05-16T12:22:20.477Z,1.63
2023-05-16T12:24:49.371Z,1.33
2023-05-16T12:27:27.901Z,1.50
2023-05-16T12:30:02.354Z,1.50
2023-05-16T12:32:54.708Z,1.37
2023-05-16T12:35:23.659Z,1.53
2023-05-16T12:37:52.811Z,1.40
2023-05-16T12:40:21.293Z,1.43
2023-05-16T12:42:54.561Z,1.90
2023-05-16T12:45:24.397Z,1.83
2023-05-16T12:48:45.152Z,1.83
2023-05-16T12:51:16.491Z,1.47
2023-05-16T12:54:01.378Z,1.40
2023-05-16T12:56:51.706Z,1.63
2023-05-16T12:59:30.611Z,1.00
2023-05-16T13:02:00.403Z,1.37
2023-05-16T13:08:08.152Z,1.27
2023-05-16T13:10:40.037Z,1.10
2023-05-16T13:13:35.562Z,0.80
2023-05-16T13:16:05.028Z,1.60
2023-05-16T13:18:34.480Z,1.30
2023-05-16T13:21:04.640Z,1.60
2023-05-16T13:24:08.682Z,2.00
2023-05-16T13:33:18.732Z,1.43
2023-05-16T13:35:48.164Z,1.80
2023-05-16T13:41:21.212Z,1.50
2023-05-16T13:44:08.557Z,1.43
2023-05-16T13:47:02.186Z,2.40
2023-05-16T13:49:34.090Z,2.17
2023-05-16T13:52:02.422Z,1.70
2023-05-16T13:54:33.665Z,1.80
2023-05-16T14:09:03.873Z,1.40
2023-05-16T14:14:47.116Z,1.55
2023-05-16T14:20:23.187Z,1.38
2023-05-16T14:23:29.231Z,1.70
2023-05-16T14:26:19.488Z,1.10
2023-05-16T14:31:44.887Z,1.27
2023-05-16T14:34:15.063Z,1.75
2023-05-16T14:36:44.491Z,1.67
2023-05-16T14:39:18.695Z,1.70
2023-05-16T14:41:58.469Z,2.17
2023-05-16T14:44:37.276Z,1.20
2023-05-16T14:47:23.358Z,1.63
2023-05-16T14:50:03.916Z,1.42
2023-05-16T14:52:34.594Z,1.35
2023-05-16T14:55:10.177Z,0.98
2023-05-16T14:57:41.710Z,1.98
2023-05-16T15:00:14.038Z,1.60
2023-05-16T15:02:42.690Z,1.27
2023-05-16T15:05:21.073Z,1.73
2023-05-16T15:07:54.327Z,1.52
2023-05-16T15:10:30.478Z,1.67
2023-05-16T15:13:14.895Z,1.50
2023-05-16T15:15:47.488Z,1.55
2023-05-16T15:18:36.383Z,1.52
2023-05-16T15:21:05.700Z,1.48
2023-05-16T15:23:34.551Z,1.30
2023-05-16T15:29:35.091Z,1.42
2023-05-16T15:34:56.405Z,1.83
2023-05-16T15:40:55.071Z,1.50
2023-05-16T15:43:35.167Z,1.52
2023-05-16T15:46:19.479Z,1.20
2023-05-16T15:49:01.809Z,1.52
2023-05-16T15:54:13.510Z,1.42
2023-05-16T15:56:44.172Z,1.50
2023-05-16T15:59:14.389Z,1.30
2023-05-16T16:08:10.383Z,3.22
2023-05-16T16:10:48.064Z,1.67
2023-05-16T16:14:18.774Z,1.27
2023-05-16T16:17:10.466Z,1.30
2023-05-16T16:22:29.295Z,1.92
2023-05-16T16:25:14.466Z,1.25
2023-05-16T16:39:13.913Z,1.73
2023-05-16T16:42:17.562Z,1.92
2023-05-16T16:48:09.536Z,1.80
2023-05-16T16:50:37.880Z,1.88
2023-05-16T16:54:06.164Z,1.67
2023-05-16T16:56:34.963Z,1.40
2023-05-16T16:59:26.584Z,1.92
2023-05-16T17:02:01.249Z,1.65
2023-05-16T17:04:37.112Z,2.33
2023-05-16T17:07:59.985Z,1.98
2023-05-16T17:16:48.963Z,2.17
2023-05-16T17:19:17.812Z,2.00
2023-05-16T17:27:20.784Z,2.25
2023-05-16T17:29:50.796Z,2.40
2023-05-16T17:35:28.504Z,2.10
2023-05-16T20:16:41.091Z,3.80
2023-05-16T21:56:22.784Z,4.03
2023-05-16T22:05:01.314Z,3.80
2023-05-16T23:50:36.729Z,4.13
2023-05-16T23:55:50.102Z,3.37
